Papaikou, Hawaii
Current Conditions -  °F | °C
As of 8:53 AM on Saturday 25 Oct 2014 (Local Time) from PHTO Reporting Station
Light Rain Light Rain  
Wind Chill: 73°   Ceiling: 2600
Heat Index: 73°   Visibility: 7mi
Dew Point: 70°   Wind: 5mph
Humidity: 90%   Direction: NA
Pressure: 30.07"   Gusts: NA
Location:  19.78°N, 155.09°W
Report Text: PHTO 251853Z VRB04KT 7SM -RA BKN026 BKN034 OVC055 23/21 A3007 RMK AO2 RAB13 SLP180 VIS LWR SW-NW P0002 T02280211
Loading
Personal Weather Stations






























Interactive Weather Map
Tropical Storm Tracking
New forecast layout! Learn more

10-Day Weather Forecast

Advertisements
Track Severe Weather on mobile